sensor_id;sensor_type;location;lat;lon;timestamp;pressure;altitude;pressure_sealevel;temperature;humidity
45872;BME280;32333;55.844;-3.210;2023-03-16T00:01:53;98093.34;;;3.97;100.00
45872;BME280;32333;55.844;-3.210;2023-03-16T00:04:21;98085.52;;;4.33;100.00
45872;BME280;32333;55.844;-3.210;2023-03-16T00:06:48;98078.34;;;3.86;100.00
45872;BME280;32333;55.844;-3.210;2023-03-16T00:09:16;98073.32;;;4.51;100.00
45872;BME280;32333;55.844;-3.210;2023-03-16T00:11:43;98064.47;;;3.08;100.00
45872;BME280;32333;55.844;-3.210;2023-03-16T00:14:35;98052.48;;;2.21;100.00
45872;BME280;32333;55.844;-3.210;2023-03-16T00:17:03;98057.92;;;1.56;100.00
45872;BME280;32333;55.844;-3.210;2023-03-16T00:19:30;98067.91;;;1.70;100.00
45872;BME280;32333;55.844;-3.210;2023-03-16T00:21:59;98059.24;;;1.97;100.00
45872;BME280;32333;55.844;-3.210;2023-03-16T00:24:26;98057.18;;;2.35;100.00
45872;BME280;32333;55.844;-3.210;2023-03-16T00:26:54;98054.82;;;3.63;100.00
45872;BME280;32333;55.844;-3.210;2023-03-16T00:29:21;98051.76;;;3.05;100.00
45872;BME280;32333;55.844;-3.210;2023-03-16T00:31:49;98048.86;;;3.61;100.00
45872;BME280;32333;55.844;-3.210;2023-03-16T00:34:16;98050.64;;;3.97;100.00
45872;BME280;32333;55.844;-3.210;2023-03-16T00:36:44;98048.80;;;3.56;100.00
45872;BME280;32333;55.844;-3.210;2023-03-16T00:39:12;98046.51;;;3.82;100.00
45872;BME280;32333;55.844;-3.210;2023-03-16T00:41:41;98035.15;;;2.97;100.00
45872;BME280;32333;55.844;-3.210;2023-03-16T00:44:36;98029.74;;;3.47;100.00
45872;BME280;32333;55.844;-3.210;2023-03-16T00:47:04;98029.66;;;2.59;100.00
45872;BME280;32333;55.844;-3.210;2023-03-16T00:49:32;98023.83;;;1.94;100.00
45872;BME280;32333;55.844;-3.210;2023-03-16T00:52:00;98023.43;;;2.38;100.00
45872;BME280;32333;55.844;-3.210;2023-03-16T00:54:28;98019.73;;;1.59;100.00
45872;BME280;32333;55.844;-3.210;2023-03-16T00:56:55;98015.87;;;1.52;100.00
45872;BME280;32333;55.844;-3.210;2023-03-16T00:59:24;98009.99;;;2.43;100.00
45872;BME280;32333;55.844;-3.210;2023-03-16T01:01:53;98006.38;;;1.72;100.00
45872;BME280;32333;55.844;-3.210;2023-03-16T01:04:21;98002.65;;;1.44;100.00
45872;BME280;32333;55.844;-3.210;2023-03-16T01:06:51;97993.08;;;1.74;100.00
45872;BME280;32333;55.844;-3.210;2023-03-16T01:09:18;97984.99;;;2.11;100.00
45872;BME280;32333;55.844;-3.210;2023-03-16T01:11:47;97987.24;;;1.46;100.00
45872;BME280;32333;55.844;-3.210;2023-03-16T01:14:36;97987.46;;;1.74;100.00
45872;BME280;32333;55.844;-3.210;2023-03-16T01:17:06;97984.96;;;1.63;100.00
45872;BME280;32333;55.844;-3.210;2023-03-16T01:19:35;97972.91;;;1.40;100.00
45872;BME280;32333;55.844;-3.210;2023-03-16T01:22:04;97969.87;;;2.22;100.00
45872;BME280;32333;55.844;-3.210;2023-03-16T01:24:33;97959.61;;;2.00;100.00
45872;BME280;32333;55.844;-3.210;2023-03-16T01:27:01;97955.48;;;2.52;100.00
45872;BME280;32333;55.844;-3.210;2023-03-16T01:29:30;97947.00;;;2.04;100.00
45872;BME280;32333;55.844;-3.210;2023-03-16T01:31:59;97940.25;;;1.43;100.00
45872;BME280;32333;55.844;-3.210;2023-03-16T01:34:27;97935.79;;;1.23;100.00
45872;BME280;32333;55.844;-3.210;2023-03-16T01:36:54;97929.46;;;1.46;100.00
45872;BME280;32333;55.844;-3.210;2023-03-16T01:39:23;97926.44;;;2.09;100.00
45872;BME280;32333;55.844;-3.210;2023-03-16T01:41:50;97928.94;;;2.12;100.00
45872;BME280;32333;55.844;-3.210;2023-03-16T01:44:54;97928.37;;;2.31;100.00
45872;BME280;32333;55.844;-3.210;2023-03-16T01:47:22;97927.81;;;1.18;100.00
45872;BME280;32333;55.844;-3.210;2023-03-16T01:49:52;97921.00;;;2.13;100.00
45872;BME280;32333;55.844;-3.210;2023-03-16T01:52:23;97917.12;;;2.32;100.00
45872;BME280;32333;55.844;-3.210;2023-03-16T01:54:56;97911.34;;;1.84;100.00
45872;BME280;32333;55.844;-3.210;2023-03-16T01:57:27;97910.76;;;1.75;100.00
45872;BME280;32333;55.844;-3.210;2023-03-16T01:59:58;97906.11;;;1.99;100.00
45872;BME280;32333;55.844;-3.210;2023-03-16T02:02:30;97903.82;;;2.16;100.00
45872;BME280;32333;55.844;-3.210;2023-03-16T02:05:01;97901.28;;;1.61;100.00
45872;BME280;32333;55.844;-3.210;2023-03-16T02:07:34;97894.41;;;2.13;100.00
45872;BME280;32333;55.844;-3.210;2023-03-16T02:10:06;97893.97;;;2.03;100.00
45872;BME280;32333;55.844;-3.210;2023-03-16T02:14:36;97884.27;;;2.19;100.00
45872;BME280;32333;55.844;-3.210;2023-03-16T02:17:03;97874.82;;;1.65;100.00
45872;BME280;32333;55.844;-3.210;2023-03-16T02:19:36;97865.35;;;2.34;100.00
45872;BME280;32333;55.844;-3.210;2023-03-16T02:22:15;97858.36;;;2.43;100.00
45872;BME280;32333;55.844;-3.210;2023-03-16T02:24:45;97854.09;;;2.02;100.00
45872;BME280;32333;55.844;-3.210;2023-03-16T02:27:13;97850.18;;;2.93;100.00
45872;BME280;32333;55.844;-3.210;2023-03-16T02:29:54;97844.75;;;2.27;100.00
45872;BME280;32333;55.844;-3.210;2023-03-16T02:32:24;97841.57;;;2.10;100.00
45872;BME280;32333;55.844;-3.210;2023-03-16T02:34:54;97832.07;;;2.46;100.00
45872;BME280;32333;55.844;-3.210;2023-03-16T02:37:22;97825.46;;;2.75;100.00
45872;BME280;32333;55.844;-3.210;2023-03-16T02:39:49;97824.41;;;2.41;100.00
45872;BME280;32333;55.844;-3.210;2023-03-16T02:44:36;97823.02;;;2.46;100.00
45872;BME280;32333;55.844;-3.210;2023-03-16T02:47:06;97817.09;;;3.25;100.00
45872;BME280;32333;55.844;-3.210;2023-03-16T02:49:38;97816.27;;;2.48;100.00
45872;BME280;32333;55.844;-3.210;2023-03-16T02:52:08;97809.74;;;2.32;100.00
45872;BME280;32333;55.844;-3.210;2023-03-16T02:54:35;97813.03;;;2.05;100.00
45872;BME280;32333;55.844;-3.210;2023-03-16T02:57:03;97810.04;;;2.45;100.00
45872;BME280;32333;55.844;-3.210;2023-03-16T02:59:31;97809.52;;;1.98;100.00
45872;BME280;32333;55.844;-3.210;2023-03-16T03:02:00;97808.32;;;2.49;100.00
45872;BME280;32333;55.844;-3.210;2023-03-16T03:04:27;97802.98;;;2.83;100.00
45872;BME280;32333;55.844;-3.210;2023-03-16T03:06:55;97797.81;;;2.10;100.00
45872;BME280;32333;55.844;-3.210;2023-03-16T03:09:23;97794.76;;;2.15;100.00
45872;BME280;32333;55.844;-3.210;2023-03-16T03:11:50;97793.23;;;2.16;100.00
45872;BME280;32333;55.844;-3.210;2023-03-16T03:14:36;97788.77;;;2.52;100.00
45872;BME280;32333;55.844;-3.210;2023-03-16T03:17:03;97782.59;;;2.86;100.00
45872;BME280;32333;55.844;-3.210;2023-03-16T03:19:30;97788.15;;;1.98;100.00
45872;BME280;32333;55.844;-3.210;2023-03-16T03:21:59;97786.79;;;2.73;100.00
45872;BME280;32333;55.844;-3.210;2023-03-16T03:24:26;97781.53;;;2.98;100.00
45872;BME280;32333;55.844;-3.210;2023-03-16T03:26:54;97780.03;;;2.60;100.00
45872;BME280;32333;55.844;-3.210;2023-03-16T03:29:21;97780.83;;;3.07;100.00
45872;BME280;32333;55.844;-3.210;2023-03-16T03:31:49;97776.13;;;2.87;100.00
45872;BME280;32333;55.844;-3.210;2023-03-16T03:34:16;97771.89;;;3.39;100.00
45872;BME280;32333;55.844;-3.210;2023-03-16T03:36:44;97765.62;;;3.09;100.00
45872;BME280;32333;55.844;-3.210;2023-03-16T03:39:12;97765.08;;;2.88;100.00
45872;BME280;32333;55.844;-3.210;2023-03-16T03:41:40;97764.19;;;3.45;100.00
45872;BME280;32333;55.844;-3.210;2023-03-16T03:44:35;97757.40;;;4.28;100.00
45872;BME280;32333;55.844;-3.210;2023-03-16T03:47:03;97758.69;;;3.71;100.00
45872;BME280;32333;55.844;-3.210;2023-03-16T03:49:30;97759.78;;;3.42;100.00
45872;BME280;32333;55.844;-3.210;2023-03-16T03:51:59;97759.13;;;3.41;100.00
45872;BME280;32333;55.844;-3.210;2023-03-16T03:54:26;97752.41;;;3.45;100.00
45872;BME280;32333;55.844;-3.210;2023-03-16T03:56:54;97752.57;;;4.02;100.00
45872;BME280;32333;55.844;-3.210;2023-03-16T03:59:21;97742.72;;;3.74;100.00
45872;BME280;32333;55.844;-3.210;2023-03-16T04:01:49;97731.88;;;4.75;100.00
45872;BME280;32333;55.844;-3.210;2023-03-16T04:04:16;97734.00;;;3.87;100.00
45872;BME280;32333;55.844;-3.210;2023-03-16T04:06:44;97733.01;;;3.95;100.00
45872;BME280;32333;55.844;-3.210;2023-03-16T04:09:13;97727.33;;;4.24;100.00
45872;BME280;32333;55.844;-3.210;2023-03-16T04:11:41;97722.83;;;4.52;100.00
45872;BME280;32333;55.844;-3.210;2023-03-16T04:14:35;97719.67;;;5.21;100.00
45872;BME280;32333;55.844;-3.210;2023-03-16T04:17:02;97713.55;;;5.29;100.00
45872;BME280;32333;55.844;-3.210;2023-03-16T04:19:30;97709.11;;;5.44;100.00
45872;BME280;32333;55.844;-3.210;2023-03-16T04:21:58;97705.81;;;5.48;100.00
45872;BME280;32333;55.844;-3.210;2023-03-16T04:24:26;97709.74;;;6.18;100.00
45872;BME280;32333;55.844;-3.210;2023-03-16T04:26:53;97705.24;;;5.12;100.00
45872;BME280;32333;55.844;-3.210;2023-03-16T04:29:21;97702.31;;;5.47;100.00
45872;BME280;32333;55.844;-3.210;2023-03-16T04:31:48;97697.45;;;6.65;100.00
45872;BME280;32333;55.844;-3.210;2023-03-16T04:34:16;97690.93;;;7.49;100.00
45872;BME280;32333;55.844;-3.210;2023-03-16T04:36:43;97689.19;;;6.74;100.00
45872;BME280;32333;55.844;-3.210;2023-03-16T04:39:12;97687.57;;;7.00;100.00
45872;BME280;32333;55.844;-3.210;2023-03-16T04:41:39;97686.53;;;7.91;100.00
45872;BME280;32333;55.844;-3.210;2023-03-16T04:44:35;97679.07;;;6.87;100.00
45872;BME280;32333;55.844;-3.210;2023-03-16T04:47:03;97680.36;;;5.68;100.00
45872;BME280;32333;55.844;-3.210;2023-03-16T04:49:30;97678.21;;;6.57;100.00
45872;BME280;32333;55.844;-3.210;2023-03-16T04:51:59;97675.60;;;6.58;100.00
45872;BME280;32333;55.844;-3.210;2023-03-16T04:54:26;97672.86;;;6.84;100.00
45872;BME280;32333;55.844;-3.210;2023-03-16T04:56:53;97673.09;;;6.57;100.00
45872;BME280;32333;55.844;-3.210;2023-03-16T04:59:21;97669.16;;;6.57;100.00
45872;BME280;32333;55.844;-3.210;2023-03-16T05:01:48;97671.06;;;7.17;100.00
45872;BME280;32333;55.844;-3.210;2023-03-16T05:04:16;97668.25;;;7.59;100.00
45872;BME280;32333;55.844;-3.210;2023-03-16T05:06:43;97663.44;;;7.36;100.00
45872;BME280;32333;55.844;-3.210;2023-03-16T05:09:12;97658.39;;;6.69;100.00
45872;BME280;32333;55.844;-3.210;2023-03-16T05:11:39;97653.00;;;6.75;100.00
45872;BME280;32333;55.844;-3.210;2023-03-16T05:14:35;97654.31;;;7.60;100.00
45872;BME280;32333;55.844;-3.210;2023-03-16T05:17:03;97647.84;;;6.20;100.00
45872;BME280;32333;55.844;-3.210;2023-03-16T05:19:30;97651.17;;;5.25;100.00
45872;BME280;32333;55.844;-3.210;2023-03-16T05:21:59;97647.29;;;6.42;100.00
45872;BME280;32333;55.844;-3.210;2023-03-16T05:24:26;97645.58;;;6.59;100.00
45872;BME280;32333;55.844;-3.210;2023-03-16T05:26:53;97647.42;;;7.15;100.00
45872;BME280;32333;55.844;-3.210;2023-03-16T05:29:21;97645.85;;;6.67;100.00
45872;BME280;32333;55.844;-3.210;2023-03-16T05:31:48;97638.85;;;6.34;100.00
45872;BME280;32333;55.844;-3.210;2023-03-16T05:34:16;97641.90;;;5.89;100.00
45872;BME280;32333;55.844;-3.210;2023-03-16T05:36:43;97637.12;;;6.05;100.00
45872;BME280;32333;55.844;-3.210;2023-03-16T05:39:12;97632.26;;;6.85;100.00
45872;BME280;32333;55.844;-3.210;2023-03-16T05:41:39;97632.37;;;5.85;100.00
45872;BME280;32333;55.844;-3.210;2023-03-16T05:44:36;97630.12;;;6.40;100.00
45872;BME280;32333;55.844;-3.210;2023-03-16T05:47:03;97632.10;;;7.01;100.00
45872;BME280;32333;55.844;-3.210;2023-03-16T05:49:30;97631.00;;;7.53;100.00
45872;BME280;32333;55.844;-3.210;2023-03-16T05:51:59;97629.98;;;6.33;100.00
45872;BME280;32333;55.844;-3.210;2023-03-16T05:54:26;97622.61;;;6.24;100.00
45872;BME280;32333;55.844;-3.210;2023-03-16T05:56:54;97621.67;;;5.66;100.00
45872;BME280;32333;55.844;-3.210;2023-03-16T05:59:21;97621.63;;;6.81;100.00
45872;BME280;32333;55.844;-3.210;2023-03-16T06:01:48;97618.83;;;5.75;100.00
45872;BME280;32333;55.844;-3.210;2023-03-16T06:04:16;97611.59;;;6.41;100.00
45872;BME280;32333;55.844;-3.210;2023-03-16T06:06:43;97612.81;;;4.94;100.00
45872;BME280;32333;55.844;-3.210;2023-03-16T06:09:12;97606.06;;;5.14;100.00
45872;BME280;32333;55.844;-3.210;2023-03-16T06:11:39;97603.87;;;5.89;100.00
45872;BME280;32333;55.844;-3.210;2023-03-16T06:14:35;97597.46;;;5.96;100.00
45872;BME280;32333;55.844;-3.210;2023-03-16T06:17:03;97598.82;;;6.72;100.00
45872;BME280;32333;55.844;-3.210;2023-03-16T06:19:30;97595.84;;;6.58;100.00
45872;BME280;32333;55.844;-3.210;2023-03-16T06:21:59;97585.84;;;6.70;100.00
45872;BME280;32333;55.844;-3.210;2023-03-16T06:24:26;97579.00;;;6.98;100.00
45872;BME280;32333;55.844;-3.210;2023-03-16T06:26:54;97577.61;;;6.85;100.00
45872;BME280;32333;55.844;-3.210;2023-03-16T06:29:21;97578.20;;;6.64;100.00
45872;BME280;32333;55.844;-3.210;2023-03-16T06:31:49;97572.81;;;7.21;100.00
45872;BME280;32333;55.844;-3.210;2023-03-16T06:34:16;97573.50;;;5.83;100.00
45872;BME280;32333;55.844;-3.210;2023-03-16T06:36:43;97570.41;;;5.69;100.00
45872;BME280;32333;55.844;-3.210;2023-03-16T06:39:12;97571.95;;;5.39;100.00
45872;BME280;32333;55.844;-3.210;2023-03-16T06:41:40;97568.33;;;5.90;100.00
45872;BME280;32333;55.844;-3.210;2023-03-16T06:44:36;97567.78;;;5.25;100.00
45872;BME280;32333;55.844;-3.210;2023-03-16T06:47:03;97564.05;;;6.32;100.00
45872;BME280;32333;55.844;-3.210;2023-03-16T06:49:30;97559.56;;;5.59;100.00
45872;BME280;32333;55.844;-3.210;2023-03-16T06:51:58;97551.35;;;4.99;100.00
45872;BME280;32333;55.844;-3.210;2023-03-16T06:54:25;97544.63;;;5.37;100.00
45872;BME280;32333;55.844;-3.210;2023-03-16T06:56:53;97545.44;;;5.30;100.00
45872;BME280;32333;55.844;-3.210;2023-03-16T06:59:20;97547.30;;;4.95;100.00
45872;BME280;32333;55.844;-3.210;2023-03-16T07:01:49;97544.17;;;4.70;100.00
45872;BME280;32333;55.844;-3.210;2023-03-16T07:04:16;97544.72;;;4.57;100.00
45872;BME280;32333;55.844;-3.210;2023-03-16T07:06:44;97546.84;;;5.09;100.00
45872;BME280;32333;55.844;-3.210;2023-03-16T07:09:11;97545.09;;;4.89;100.00
45872;BME280;32333;55.844;-3.210;2023-03-16T07:11:39;97539.81;;;4.52;100.00
45872;BME280;32333;55.844;-3.210;2023-03-16T07:14:36;97536.84;;;4.59;100.00
45872;BME280;32333;55.844;-3.210;2023-03-16T07:17:03;97535.36;;;4.28;100.00
45872;BME280;32333;55.844;-3.210;2023-03-16T07:19:30;97536.70;;;4.21;100.00
45872;BME280;32333;55.844;-3.210;2023-03-16T07:21:59;97541.12;;;4.85;100.00
45872;BME280;32333;55.844;-3.210;2023-03-16T07:24:26;97540.96;;;5.20;100.00
45872;BME280;32333;55.844;-3.210;2023-03-16T07:26:54;97536.60;;;5.01;100.00
45872;BME280;32333;55.844;-3.210;2023-03-16T07:29:21;97536.75;;;4.66;100.00
45872;BME280;32333;55.844;-3.210;2023-03-16T07:31:49;97531.76;;;5.74;100.00
45872;BME280;32333;55.844;-3.210;2023-03-16T07:34:16;97530.98;;;6.09;100.00
45872;BME280;32333;55.844;-3.210;2023-03-16T07:36:43;97526.23;;;6.19;100.00
45872;BME280;32333;55.844;-3.210;2023-03-16T07:39:12;97529.61;;;5.27;100.00
45872;BME280;32333;55.844;-3.210;2023-03-16T07:41:39;97529.85;;;6.58;100.00
45872;BME280;32333;55.844;-3.210;2023-03-16T07:44:36;97526.79;;;5.42;100.00
45872;BME280;32333;55.844;-3.210;2023-03-16T07:47:03;97526.32;;;5.97;100.00
45872;BME280;32333;55.844;-3.210;2023-03-16T07:49:31;97523.79;;;5.71;100.00
45872;BME280;32333;55.844;-3.210;2023-03-16T07:52:00;97520.05;;;6.26;100.00
45872;BME280;32333;55.844;-3.210;2023-03-16T07:54:27;97516.00;;;6.29;100.00
45872;BME280;32333;55.844;-3.210;2023-03-16T07:56:54;97514.05;;;6.85;100.00
45872;BME280;32333;55.844;-3.210;2023-03-16T07:59:23;97508.34;;;6.89;100.00
45872;BME280;32333;55.844;-3.210;2023-03-16T08:01:50;97502.06;;;7.24;100.00
45872;BME280;32333;55.844;-3.210;2023-03-16T08:04:18;97506.00;;;7.58;100.00
45872;BME280;32333;55.844;-3.210;2023-03-16T08:06:45;97509.18;;;7.28;100.00
45872;BME280;32333;55.844;-3.210;2023-03-16T08:09:13;97506.94;;;7.70;100.00
45872;BME280;32333;55.844;-3.210;2023-03-16T08:11:41;97507.71;;;7.15;100.00
45872;BME280;32333;55.844;-3.210;2023-03-16T08:14:36;97505.57;;;8.40;100.00
45872;BME280;32333;55.844;-3.210;2023-03-16T08:17:04;97500.05;;;7.28;100.00
45872;BME280;32333;55.844;-3.210;2023-03-16T08:19:32;97495.46;;;7.38;100.00
45872;BME280;32333;55.844;-3.210;2023-03-16T08:22:00;97491.41;;;8.17;100.00
45872;BME280;32333;55.844;-3.210;2023-03-16T08:24:31;97487.59;;;6.85;100.00
45872;BME280;32333;55.844;-3.210;2023-03-16T08:26:59;97489.44;;;7.79;100.00
45872;BME280;32333;55.844;-3.210;2023-03-16T08:29:27;97490.86;;;9.25;100.00
45872;BME280;32333;55.844;-3.210;2023-03-16T08:31:54;97490.16;;;8.34;100.00
45872;BME280;32333;55.844;-3.210;2023-03-16T08:34:23;97491.24;;;8.23;100.00
45872;BME280;32333;55.844;-3.210;2023-03-16T08:36:51;97486.61;;;8.27;100.00
45872;BME280;32333;55.844;-3.210;2023-03-16T08:39:18;97478.61;;;9.12;100.00
45872;BME280;32333;55.844;-3.210;2023-03-16T08:41:46;97482.18;;;8.56;100.00
45872;BME280;32333;55.844;-3.210;2023-03-16T08:44:35;97479.36;;;9.50;100.00
45872;BME280;32333;55.844;-3.210;2023-03-16T08:47:03;97474.87;;;9.20;100.00
45872;BME280;32333;55.844;-3.210;2023-03-16T08:49:31;97484.40;;;8.66;100.00
45872;BME280;32333;55.844;-3.210;2023-03-16T08:51:59;97477.69;;;7.95;100.00
45872;BME280;32333;55.844;-3.210;2023-03-16T08:54:27;97477.17;;;9.05;100.00
45872;BME280;32333;55.844;-3.210;2023-03-16T08:56:54;97472.29;;;8.19;100.00
45872;BME280;32333;55.844;-3.210;2023-03-16T08:59:22;97471.64;;;8.26;100.00
45872;BME280;32333;55.844;-3.210;2023-03-16T09:01:50;97471.02;;;6.67;100.00
45872;BME280;32333;55.844;-3.210;2023-03-16T09:04:17;97467.45;;;8.75;100.00
45872;BME280;32333;55.844;-3.210;2023-03-16T09:06:44;97473.56;;;7.40;100.00
45872;BME280;32333;55.844;-3.210;2023-03-16T09:09:12;97471.90;;;6.91;100.00
45872;BME280;32333;55.844;-3.210;2023-03-16T09:11:39;97463.42;;;7.80;100.00
45872;BME280;32333;55.844;-3.210;2023-03-16T09:14:35;97461.25;;;6.87;100.00
45872;BME280;32333;55.844;-3.210;2023-03-16T09:17:03;97454.64;;;7.33;100.00
45872;BME280;32333;55.844;-3.210;2023-03-16T09:19:30;97456.28;;;6.32;100.00
45872;BME280;32333;55.844;-3.210;2023-03-16T09:21:58;97454.77;;;6.82;100.00
45872;BME280;32333;55.844;-3.210;2023-03-16T09:24:26;97441.80;;;6.72;100.00
45872;BME280;32333;55.844;-3.210;2023-03-16T09:26:53;97451.42;;;6.50;100.00
45872;BME280;32333;55.844;-3.210;2023-03-16T09:29:20;97454.24;;;6.37;100.00
45872;BME280;32333;55.844;-3.210;2023-03-16T09:31:48;97455.14;;;6.34;100.00
45872;BME280;32333;55.844;-3.210;2023-03-16T09:34:15;97458.94;;;6.34;100.00
45872;BME280;32333;55.844;-3.210;2023-03-16T09:36:42;97460.37;;;6.45;100.00
45872;BME280;32333;55.844;-3.210;2023-03-16T09:39:11;97462.43;;;6.32;100.00
45872;BME280;32333;55.844;-3.210;2023-03-16T09:41:45;97460.34;;;6.82;100.00
45872;BME280;32333;55.844;-3.210;2023-03-16T09:44:43;97457.76;;;7.06;100.00
45872;BME280;32333;55.844;-3.210;2023-03-16T09:47:13;97452.19;;;7.13;100.00
45872;BME280;32333;55.844;-3.210;2023-03-16T09:49:43;97447.37;;;7.04;100.00
45872;BME280;32333;55.844;-3.210;2023-03-16T09:52:22;97431.76;;;7.33;100.00
45872;BME280;32333;55.844;-3.210;2023-03-16T09:54:56;97427.90;;;6.86;100.00
45872;BME280;32333;55.844;-3.210;2023-03-16T09:57:29;97436.94;;;6.45;100.00
45872;BME280;32333;55.844;-3.210;2023-03-16T10:00:01;97434.00;;;6.99;100.00
45872;BME280;32333;55.844;-3.210;2023-03-16T10:02:44;97435.45;;;7.13;100.00
45872;BME280;32333;55.844;-3.210;2023-03-16T10:05:16;97436.64;;;6.95;100.00
45872;BME280;32333;55.844;-3.210;2023-03-16T10:07:54;97432.41;;;6.69;100.00
45872;BME280;32333;55.844;-3.210;2023-03-16T10:10:36;97432.72;;;7.00;100.00
45872;BME280;32333;55.844;-3.210;2023-03-16T10:14:40;97441.49;;;6.83;100.00
45872;BME280;32333;55.844;-3.210;2023-03-16T10:17:14;97447.76;;;6.57;100.00
45872;BME280;32333;55.844;-3.210;2023-03-16T10:19:47;97449.58;;;6.41;100.00
45872;BME280;32333;55.844;-3.210;2023-03-16T10:22:19;97452.15;;;6.58;100.00
45872;BME280;32333;55.844;-3.210;2023-03-16T10:24:56;97451.41;;;6.41;100.00
45872;BME280;32333;55.844;-3.210;2023-03-16T10:27:29;97461.91;;;6.44;100.00
45872;BME280;32333;55.844;-3.210;2023-03-16T10:29:58;97453.58;;;5.91;100.00
45872;BME280;32333;55.844;-3.210;2023-03-16T10:32:30;97450.71;;;6.31;100.00
45872;BME280;32333;55.844;-3.210;2023-03-16T10:35:02;97440.50;;;6.52;100.00
45872;BME280;32333;55.844;-3.210;2023-03-16T10:37:32;97433.59;;;6.85;100.00
45872;BME280;32333;55.844;-3.210;2023-03-16T10:40:01;97435.69;;;6.73;100.00
45872;BME280;32333;55.844;-3.210;2023-03-16T10:44:39;97422.12;;;6.83;100.00
45872;BME280;32333;55.844;-3.210;2023-03-16T10:47:14;97423.72;;;6.52;100.00
45872;BME280;32333;55.844;-3.210;2023-03-16T10:49:44;97424.27;;;6.84;100.00
45872;BME280;32333;55.844;-3.210;2023-03-16T10:52:15;97417.16;;;6.67;100.00
45872;BME280;32333;55.844;-3.210;2023-03-16T10:54:49;97414.44;;;6.92;100.00
45872;BME280;32333;55.844;-3.210;2023-03-16T10:57:22;97414.28;;;7.33;100.00
45872;BME280;32333;55.844;-3.210;2023-03-16T10:59:53;97409.18;;;7.48;100.00
45872;BME280;32333;55.844;-3.210;2023-03-16T11:02:23;97411.26;;;7.40;100.00
45872;BME280;32333;55.844;-3.210;2023-03-16T11:04:51;97416.08;;;7.74;100.00
45872;BME280;32333;55.844;-3.210;2023-03-16T11:07:21;97423.38;;;7.92;100.00
45872;BME280;32333;55.844;-3.210;2023-03-16T11:09:50;97420.23;;;7.02;100.00
45872;BME280;32333;55.844;-3.210;2023-03-16T11:14:35;97419.54;;;7.57;100.00
45872;BME280;32333;55.844;-3.210;2023-03-16T11:17:08;97421.38;;;7.35;100.00
45872;BME280;32333;55.844;-3.210;2023-03-16T11:19:41;97418.61;;;7.45;100.00
45872;BME280;32333;55.844;-3.210;2023-03-16T11:22:15;97412.94;;;7.02;100.00
45872;BME280;32333;55.844;-3.210;2023-03-16T11:24:47;97405.52;;;7.69;100.00
45872;BME280;32333;55.844;-3.210;2023-03-16T11:27:23;97413.09;;;7.82;100.00
45872;BME280;32333;55.844;-3.210;2023-03-16T11:30:02;97403.64;;;7.88;100.00
45872;BME280;32333;55.844;-3.210;2023-03-16T11:32:33;97396.62;;;7.59;100.00
45872;BME280;32333;55.844;-3.210;2023-03-16T11:35:09;97397.33;;;8.51;100.00
45872;BME280;32333;55.844;-3.210;2023-03-16T11:37:48;97392.71;;;8.03;100.00
45872;BME280;32333;55.844;-3.210;2023-03-16T11:40:31;97399.34;;;7.40;100.00
45872;BME280;32333;55.844;-3.210;2023-03-16T11:44:40;97389.07;;;8.35;100.00
45872;BME280;32333;55.844;-3.210;2023-03-16T11:47:27;97391.90;;;8.14;100.00
45872;BME280;32333;55.844;-3.210;2023-03-16T11:50:05;97390.87;;;7.78;100.00
45872;BME280;32333;55.844;-3.210;2023-03-16T11:52:45;97386.57;;;8.05;100.00
45872;BME280;32333;55.844;-3.210;2023-03-16T11:55:24;97384.83;;;8.42;100.00
45872;BME280;32333;55.844;-3.210;2023-03-16T11:58:08;97379.49;;;8.36;100.00
45872;BME280;32333;55.844;-3.210;2023-03-16T12:00:44;97377.38;;;8.96;100.00
45872;BME280;32333;55.844;-3.210;2023-03-16T12:03:56;97371.88;;;9.39;100.00
45872;BME280;32333;55.844;-3.210;2023-03-16T12:06:34;97370.83;;;9.60;100.00
45872;BME280;32333;55.844;-3.210;2023-03-16T12:09:53;97372.86;;;8.97;100.00
45872;BME280;32333;55.844;-3.210;2023-03-16T12:14:39;97374.24;;;9.91;100.00
45872;BME280;32333;55.844;-3.210;2023-03-16T12:17:14;97369.98;;;9.50;100.00
45872;BME280;32333;55.844;-3.210;2023-03-16T12:19:46;97368.47;;;9.82;100.00
45872;BME280;32333;55.844;-3.210;2023-03-16T12:22:19;97367.17;;;9.03;100.00
45872;BME280;32333;55.844;-3.210;2023-03-16T12:24:48;97368.02;;;8.98;100.00
45872;BME280;32333;55.844;-3.210;2023-03-16T12:27:20;97373.43;;;8.60;100.00
45872;BME280;32333;55.844;-3.210;2023-03-16T12:29:55;97373.53;;;8.67;100.00
45872;BME280;32333;55.844;-3.210;2023-03-16T12:32:35;97370.55;;;9.62;100.00
45872;BME280;32333;55.844;-3.210;2023-03-16T12:35:16;97368.66;;;9.18;100.00
45872;BME280;32333;55.844;-3.210;2023-03-16T12:37:55;97369.77;;;9.11;100.00
45872;BME280;32333;55.844;-3.210;2023-03-16T12:40:33;97371.70;;;8.90;100.00
45872;BME280;32333;55.844;-3.210;2023-03-16T12:44:42;97374.74;;;8.97;100.00
45872;BME280;32333;55.844;-3.210;2023-03-16T12:47:17;97375.54;;;8.67;100.00
45872;BME280;32333;55.844;-3.210;2023-03-16T12:49:50;97372.32;;;9.40;100.00
45872;BME280;32333;55.844;-3.210;2023-03-16T12:52:18;97375.47;;;8.80;100.00
45872;BME280;32333;55.844;-3.210;2023-03-16T12:54:50;97378.58;;;9.44;100.00
45872;BME280;32333;55.844;-3.210;2023-03-16T12:57:18;97377.28;;;9.64;100.00
45872;BME280;32333;55.844;-3.210;2023-03-16T12:59:48;97381.62;;;9.89;100.00
45872;BME280;32333;55.844;-3.210;2023-03-16T13:02:25;97383.16;;;9.17;100.00
45872;BME280;32333;55.844;-3.210;2023-03-16T13:04:57;97381.85;;;9.16;100.00
45872;BME280;32333;55.844;-3.210;2023-03-16T13:07:27;97387.37;;;9.34;100.00
45872;BME280;32333;55.844;-3.210;2023-03-16T13:09:57;97395.58;;;9.74;100.00
45872;BME280;32333;55.844;-3.210;2023-03-16T13:14:38;97397.56;;;9.27;100.00
45872;BME280;32333;55.844;-3.210;2023-03-16T13:17:22;97399.78;;;8.65;100.00
45872;BME280;32333;55.844;-3.210;2023-03-16T13:20:03;97400.82;;;9.25;100.00
45872;BME280;32333;55.844;-3.210;2023-03-16T13:22:41;97406.56;;;9.58;100.00
45872;BME280;32333;55.844;-3.210;2023-03-16T13:25:16;97403.58;;;8.94;100.00
45872;BME280;32333;55.844;-3.210;2023-03-16T13:27:45;97403.12;;;9.50;100.00
45872;BME280;32333;55.844;-3.210;2023-03-16T13:30:20;97396.60;;;8.99;100.00